sensor_id;sensor_type;location;lat;lon;timestamp;P1;durP1;ratioP1;P2;durP2;ratioP2
5245;SDS011;54412;51.206;6.888;2023-02-01T00:02:05;23.43;;;8.50;;
5245;SDS011;54412;51.206;6.888;2023-02-01T00:04:31;20.73;;;8.70;;
5245;SDS011;54412;51.206;6.888;2023-02-01T00:06:57;20.37;;;8.70;;
5245;SDS011;54412;51.206;6.888;2023-02-01T00:09:23;15.40;;;8.10;;
5245;SDS011;54412;51.206;6.888;2023-02-01T00:11:49;18.67;;;9.17;;
5245;SDS011;54412;51.206;6.888;2023-02-01T00:14:14;20.83;;;9.83;;
5245;SDS011;54412;51.206;6.888;2023-02-01T00:16:40;21.90;;;10.47;;
5245;SDS011;54412;51.206;6.888;2023-02-01T00:19:07;18.77;;;8.83;;
5245;SDS011;54412;51.206;6.888;2023-02-01T00:21:37;25.23;;;10.47;;
5245;SDS011;54412;51.206;6.888;2023-02-01T00:24:04;25.20;;;12.30;;
5245;SDS011;54412;51.206;6.888;2023-02-01T00:26:40;22.60;;;10.80;;
5245;SDS011;54412;51.206;6.888;2023-02-01T00:29:12;33.07;;;14.03;;
5245;SDS011;54412;51.206;6.888;2023-02-01T00:31:41;27.53;;;11.13;;
5245;SDS011;54412;51.206;6.888;2023-02-01T00:34:09;23.17;;;11.70;;
5245;SDS011;54412;51.206;6.888;2023-02-01T00:36:39;22.10;;;11.60;;
5245;SDS011;54412;51.206;6.888;2023-02-01T00:39:06;22.27;;;12.20;;
5245;SDS011;54412;51.206;6.888;2023-02-01T00:41:31;19.27;;;11.67;;
5245;SDS011;54412;51.206;6.888;2023-02-01T00:43:57;26.70;;;11.73;;
5245;SDS011;54412;51.206;6.888;2023-02-01T00:46:23;20.10;;;11.93;;
5245;SDS011;54412;51.206;6.888;2023-02-01T00:48:49;19.07;;;10.80;;
5245;SDS011;54412;51.206;6.888;2023-02-01T00:51:16;26.77;;;10.00;;
5245;SDS011;54412;51.206;6.888;2023-02-01T00:53:46;18.70;;;11.50;;
5245;SDS011;54412;51.206;6.888;2023-02-01T00:56:12;17.57;;;9.97;;
5245;SDS011;54412;51.206;6.888;2023-02-01T00:58:39;19.53;;;10.43;;
5245;SDS011;54412;51.206;6.888;2023-02-01T01:01:10;29.47;;;10.17;;
5245;SDS011;54412;51.206;6.888;2023-02-01T01:03:43;19.87;;;8.80;;
5245;SDS011;54412;51.206;6.888;2023-02-01T01:06:16;22.27;;;9.50;;
5245;SDS011;54412;51.206;6.888;2023-02-01T01:08:45;17.40;;;7.97;;
5245;SDS011;54412;51.206;6.888;2023-02-01T01:11:15;19.27;;;8.00;;
5245;SDS011;54412;51.206;6.888;2023-02-01T01:13:48;16.60;;;7.20;;
5245;SDS011;54412;51.206;6.888;2023-02-01T01:16:15;18.20;;;7.03;;
5245;SDS011;54412;51.206;6.888;2023-02-01T01:18:42;16.60;;;6.80;;
5245;SDS011;54412;51.206;6.888;2023-02-01T01:21:09;16.93;;;6.47;;
5245;SDS011;54412;51.206;6.888;2023-02-01T01:23:37;17.43;;;6.30;;
5245;SDS011;54412;51.206;6.888;2023-02-01T01:26:06;15.60;;;6.03;;
5245;SDS011;54412;51.206;6.888;2023-02-01T01:28:35;20.37;;;7.20;;
5245;SDS011;54412;51.206;6.888;2023-02-01T01:31:01;20.03;;;6.70;;
5245;SDS011;54412;51.206;6.888;2023-02-01T01:33:28;18.80;;;5.73;;
5245;SDS011;54412;51.206;6.888;2023-02-01T01:35:54;11.90;;;5.73;;
5245;SDS011;54412;51.206;6.888;2023-02-01T01:38:20;16.37;;;5.23;;
5245;SDS011;54412;51.206;6.888;2023-02-01T01:40:46;13.20;;;4.97;;
5245;SDS011;54412;51.206;6.888;2023-02-01T01:43:15;16.93;;;6.37;;
5245;SDS011;54412;51.206;6.888;2023-02-01T01:45:47;18.70;;;5.13;;
5245;SDS011;54412;51.206;6.888;2023-02-01T01:51:05;21.30;;;5.10;;
5245;SDS011;54412;51.206;6.888;2023-02-01T01:53:40;17.97;;;4.67;;
5245;SDS011;54412;51.206;6.888;2023-02-01T01:56:15;20.87;;;5.00;;
5245;SDS011;54412;51.206;6.888;2023-02-01T01:58:41;15.60;;;5.30;;
5245;SDS011;54412;51.206;6.888;2023-02-01T02:01:07;20.40;;;5.50;;
5245;SDS011;54412;51.206;6.888;2023-02-01T02:03:34;10.60;;;4.00;;
5245;SDS011;54412;51.206;6.888;2023-02-01T02:06:12;13.83;;;4.03;;
5245;SDS011;54412;51.206;6.888;2023-02-01T02:08:54;10.10;;;3.50;;
5245;SDS011;54412;51.206;6.888;2023-02-01T02:11:20;16.13;;;4.77;;
5245;SDS011;54412;51.206;6.888;2023-02-01T02:13:47;8.27;;;3.80;;
5245;SDS011;54412;51.206;6.888;2023-02-01T02:16:30;16.30;;;4.90;;
5245;SDS011;54412;51.206;6.888;2023-02-01T02:40:52;33.37;;;6.40;;
5245;SDS011;54412;51.206;6.888;2023-02-01T02:44:09;14.13;;;4.43;;
5245;SDS011;54412;51.206;6.888;2023-02-01T02:47:42;19.93;;;4.67;;
5245;SDS011;54412;51.206;6.888;2023-02-01T02:50:23;18.90;;;4.37;;
5245;SDS011;54412;51.206;6.888;2023-02-01T02:53:21;18.90;;;4.70;;
5245;SDS011;54412;51.206;6.888;2023-02-01T02:56:16;20.33;;;4.63;;
5245;SDS011;54412;51.206;6.888;2023-02-01T02:59:04;20.70;;;4.57;;
5245;SDS011;54412;51.206;6.888;2023-02-01T03:01:53;20.40;;;4.00;;
5245;SDS011;54412;51.206;6.888;2023-02-01T03:04:38;13.97;;;3.37;;
5245;SDS011;54412;51.206;6.888;2023-02-01T03:07:12;12.07;;;4.23;;
5245;SDS011;54412;51.206;6.888;2023-02-01T03:10:02;15.10;;;4.33;;
5245;SDS011;54412;51.206;6.888;2023-02-01T03:12:37;14.60;;;3.80;;
5245;SDS011;54412;51.206;6.888;2023-02-01T03:15:21;28.20;;;5.70;;
5245;SDS011;54412;51.206;6.888;2023-02-01T03:17:59;16.63;;;4.60;;
5245;SDS011;54412;51.206;6.888;2023-02-01T03:20:32;15.67;;;3.40;;
5245;SDS011;54412;51.206;6.888;2023-02-01T03:22:59;18.00;;;4.63;;
5245;SDS011;54412;51.206;6.888;2023-02-01T03:25:31;16.03;;;5.07;;
5245;SDS011;54412;51.206;6.888;2023-02-01T03:28:06;18.43;;;4.33;;
5245;SDS011;54412;51.206;6.888;2023-02-01T03:30:39;16.20;;;4.13;;
5245;SDS011;54412;51.206;6.888;2023-02-01T03:33:12;11.67;;;4.80;;
5245;SDS011;54412;51.206;6.888;2023-02-01T03:35:48;21.70;;;5.20;;
5245;SDS011;54412;51.206;6.888;2023-02-01T03:38:42;19.57;;;4.90;;
5245;SDS011;54412;51.206;6.888;2023-02-01T03:41:47;20.60;;;4.80;;
5245;SDS011;54412;51.206;6.888;2023-02-01T03:47:14;15.83;;;4.47;;
5245;SDS011;54412;51.206;6.888;2023-02-01T03:49:47;21.73;;;4.87;;
5245;SDS011;54412;51.206;6.888;2023-02-01T03:52:22;16.63;;;6.00;;
5245;SDS011;54412;51.206;6.888;2023-02-01T03:54:55;15.40;;;5.13;;
5245;SDS011;54412;51.206;6.888;2023-02-01T03:57:24;14.70;;;4.83;;
5245;SDS011;54412;51.206;6.888;2023-02-01T04:02:53;19.97;;;4.40;;
5245;SDS011;54412;51.206;6.888;2023-02-01T04:05:20;19.77;;;4.77;;
5245;SDS011;54412;51.206;6.888;2023-02-01T04:07:47;17.73;;;4.40;;
5245;SDS011;54412;51.206;6.888;2023-02-01T04:10:12;15.70;;;4.17;;
5245;SDS011;54412;51.206;6.888;2023-02-01T04:12:39;23.87;;;4.20;;
5245;SDS011;54412;51.206;6.888;2023-02-01T04:15:05;22.00;;;5.40;;
5245;SDS011;54412;51.206;6.888;2023-02-01T04:17:32;26.10;;;4.60;;
5245;SDS011;54412;51.206;6.888;2023-02-01T04:19:58;17.37;;;4.63;;
5245;SDS011;54412;51.206;6.888;2023-02-01T04:22:23;16.63;;;4.60;;
5245;SDS011;54412;51.206;6.888;2023-02-01T04:24:49;16.80;;;4.63;;
5245;SDS011;54412;51.206;6.888;2023-02-01T04:27:15;18.93;;;4.50;;
5245;SDS011;54412;51.206;6.888;2023-02-01T04:29:41;32.43;;;5.80;;
5245;SDS011;54412;51.206;6.888;2023-02-01T04:32:07;16.77;;;4.00;;
5245;SDS011;54412;51.206;6.888;2023-02-01T04:34:33;21.70;;;4.67;;
5245;SDS011;54412;51.206;6.888;2023-02-01T04:36:58;15.50;;;4.33;;
5245;SDS011;54412;51.206;6.888;2023-02-01T04:39:24;26.23;;;6.03;;
5245;SDS011;54412;51.206;6.888;2023-02-01T04:41:50;19.70;;;5.43;;
5245;SDS011;54412;51.206;6.888;2023-02-01T04:44:16;17.27;;;4.47;;
5245;SDS011;54412;51.206;6.888;2023-02-01T04:46:44;21.47;;;4.97;;
5245;SDS011;54412;51.206;6.888;2023-02-01T04:49:12;19.97;;;5.07;;
5245;SDS011;54412;51.206;6.888;2023-02-01T04:51:39;23.37;;;5.93;;
5245;SDS011;54412;51.206;6.888;2023-02-01T04:54:05;17.20;;;4.20;;
5245;SDS011;54412;51.206;6.888;2023-02-01T04:56:32;15.10;;;4.40;;
5245;SDS011;54412;51.206;6.888;2023-02-01T04:58:59;23.43;;;5.30;;
5245;SDS011;54412;51.206;6.888;2023-02-01T05:01:27;27.90;;;5.43;;
5245;SDS011;54412;51.206;6.888;2023-02-01T05:03:53;28.73;;;5.40;;
5245;SDS011;54412;51.206;6.888;2023-02-01T05:06:19;21.90;;;5.00;;
5245;SDS011;54412;51.206;6.888;2023-02-01T05:08:46;23.37;;;5.10;;
5245;SDS011;54412;51.206;6.888;2023-02-01T05:11:11;17.53;;;4.87;;
5245;SDS011;54412;51.206;6.888;2023-02-01T05:13:57;15.20;;;3.80;;
5245;SDS011;54412;51.206;6.888;2023-02-01T05:16:24;17.03;;;4.70;;
5245;SDS011;54412;51.206;6.888;2023-02-01T05:18:51;16.10;;;4.50;;
5245;SDS011;54412;51.206;6.888;2023-02-01T05:21:16;25.70;;;5.60;;
5245;SDS011;54412;51.206;6.888;2023-02-01T05:23:42;24.40;;;6.50;;
5245;SDS011;54412;51.206;6.888;2023-02-01T05:26:26;22.27;;;4.37;;
5245;SDS011;54412;51.206;6.888;2023-02-01T05:28:52;28.63;;;4.90;;
5245;SDS011;54412;51.206;6.888;2023-02-01T05:31:18;18.07;;;4.73;;
5245;SDS011;54412;51.206;6.888;2023-02-01T05:33:43;25.20;;;4.93;;
5245;SDS011;54412;51.206;6.888;2023-02-01T05:36:09;18.90;;;5.53;;
5245;SDS011;54412;51.206;6.888;2023-02-01T05:38:34;24.90;;;3.93;;
5245;SDS011;54412;51.206;6.888;2023-02-01T05:41:00;21.43;;;4.73;;
5245;SDS011;54412;51.206;6.888;2023-02-01T05:43:26;14.37;;;4.70;;
5245;SDS011;54412;51.206;6.888;2023-02-01T05:45:52;19.37;;;4.40;;
5245;SDS011;54412;51.206;6.888;2023-02-01T05:48:18;25.67;;;4.60;;
5245;SDS011;54412;51.206;6.888;2023-02-01T05:50:44;23.07;;;5.90;;
5245;SDS011;54412;51.206;6.888;2023-02-01T05:53:10;17.70;;;4.40;;
5245;SDS011;54412;51.206;6.888;2023-02-01T05:55:37;25.33;;;5.60;;
5245;SDS011;54412;51.206;6.888;2023-02-01T05:58:03;28.83;;;4.80;;
5245;SDS011;54412;51.206;6.888;2023-02-01T06:00:30;30.33;;;7.27;;
5245;SDS011;54412;51.206;6.888;2023-02-01T06:02:56;23.30;;;7.43;;
5245;SDS011;54412;51.206;6.888;2023-02-01T06:05:23;28.17;;;6.70;;
5245;SDS011;54412;51.206;6.888;2023-02-01T06:07:48;21.73;;;5.20;;
5245;SDS011;54412;51.206;6.888;2023-02-01T06:10:15;16.50;;;5.30;;
5245;SDS011;54412;51.206;6.888;2023-02-01T06:12:42;20.63;;;5.97;;
5245;SDS011;54412;51.206;6.888;2023-02-01T06:15:09;20.53;;;4.17;;
5245;SDS011;54412;51.206;6.888;2023-02-01T06:17:37;24.27;;;5.23;;
5245;SDS011;54412;51.206;6.888;2023-02-01T06:20:04;17.93;;;4.97;;
5245;SDS011;54412;51.206;6.888;2023-02-01T06:22:31;25.93;;;7.47;;
5245;SDS011;54412;51.206;6.888;2023-02-01T06:24:57;42.90;;;7.87;;
5245;SDS011;54412;51.206;6.888;2023-02-01T06:27:24;22.53;;;5.67;;
5245;SDS011;54412;51.206;6.888;2023-02-01T06:29:50;21.50;;;4.90;;
5245;SDS011;54412;51.206;6.888;2023-02-01T06:32:16;24.80;;;6.60;;
5245;SDS011;54412;51.206;6.888;2023-02-01T06:34:42;13.70;;;4.83;;
5245;SDS011;54412;51.206;6.888;2023-02-01T06:37:08;26.93;;;5.30;;
5245;SDS011;54412;51.206;6.888;2023-02-01T06:39:35;21.23;;;5.33;;
5245;SDS011;54412;51.206;6.888;2023-02-01T06:42:02;30.10;;;6.23;;
5245;SDS011;54412;51.206;6.888;2023-02-01T06:44:28;19.97;;;5.13;;
5245;SDS011;54412;51.206;6.888;2023-02-01T06:46:54;29.23;;;5.20;;
5245;SDS011;54412;51.206;6.888;2023-02-01T06:49:19;28.03;;;5.50;;
5245;SDS011;54412;51.206;6.888;2023-02-01T06:51:46;20.57;;;4.97;;
5245;SDS011;54412;51.206;6.888;2023-02-01T06:54:11;24.50;;;4.93;;
5245;SDS011;54412;51.206;6.888;2023-02-01T06:56:37;30.17;;;6.23;;
5245;SDS011;54412;51.206;6.888;2023-02-01T06:59:04;13.63;;;4.17;;
5245;SDS011;54412;51.206;6.888;2023-02-01T07:01:31;30.07;;;5.07;;
5245;SDS011;54412;51.206;6.888;2023-02-01T07:03:57;16.83;;;4.07;;
5245;SDS011;54412;51.206;6.888;2023-02-01T07:06:23;17.87;;;5.20;;
5245;SDS011;54412;51.206;6.888;2023-02-01T07:08:49;26.13;;;5.23;;
5245;SDS011;54412;51.206;6.888;2023-02-01T07:11:15;22.43;;;4.70;;
5245;SDS011;54412;51.206;6.888;2023-02-01T07:13:43;17.07;;;4.77;;
5245;SDS011;54412;51.206;6.888;2023-02-01T07:16:13;20.77;;;5.00;;
5245;SDS011;54412;51.206;6.888;2023-02-01T07:18:42;23.77;;;4.43;;
5245;SDS011;54412;51.206;6.888;2023-02-01T07:21:09;26.33;;;6.23;;
5245;SDS011;54412;51.206;6.888;2023-02-01T07:23:35;24.53;;;5.40;;
5245;SDS011;54412;51.206;6.888;2023-02-01T07:26:02;22.17;;;4.73;;
5245;SDS011;54412;51.206;6.888;2023-02-01T07:28:33;21.67;;;4.87;;
5245;SDS011;54412;51.206;6.888;2023-02-01T07:33:53;31.50;;;5.90;;
5245;SDS011;54412;51.206;6.888;2023-02-01T07:36:21;29.43;;;5.67;;
5245;SDS011;54412;51.206;6.888;2023-02-01T07:38:47;24.60;;;5.40;;
5245;SDS011;54412;51.206;6.888;2023-02-01T07:41:12;18.77;;;4.57;;
5245;SDS011;54412;51.206;6.888;2023-02-01T07:43:38;27.90;;;5.40;;
5245;SDS011;54412;51.206;6.888;2023-02-01T07:46:05;24.90;;;6.77;;
5245;SDS011;54412;51.206;6.888;2023-02-01T07:48:32;22.47;;;5.07;;
5245;SDS011;54412;51.206;6.888;2023-02-01T07:51:02;21.87;;;4.33;;
5245;SDS011;54412;51.206;6.888;2023-02-01T07:53:38;21.87;;;4.53;;
5245;SDS011;54412;51.206;6.888;2023-02-01T07:56:09;17.60;;;5.37;;
5245;SDS011;54412;51.206;6.888;2023-02-01T07:58:38;30.13;;;5.93;;
5245;SDS011;54412;51.206;6.888;2023-02-01T08:01:04;18.87;;;4.70;;
5245;SDS011;54412;51.206;6.888;2023-02-01T08:03:49;14.33;;;3.93;;
5245;SDS011;54412;51.206;6.888;2023-02-01T08:06:18;25.67;;;6.33;;
5245;SDS011;54412;51.206;6.888;2023-02-01T08:08:46;23.03;;;5.40;;
5245;SDS011;54412;51.206;6.888;2023-02-01T08:11:13;24.13;;;5.00;;
5245;SDS011;54412;51.206;6.888;2023-02-01T08:13:40;21.13;;;4.30;;
5245;SDS011;54412;51.206;6.888;2023-02-01T08:16:06;32.00;;;4.97;;
5245;SDS011;54412;51.206;6.888;2023-02-01T08:18:35;24.10;;;5.70;;
5245;SDS011;54412;51.206;6.888;2023-02-01T08:21:03;25.40;;;6.00;;
5245;SDS011;54412;51.206;6.888;2023-02-01T08:23:32;22.33;;;4.47;;
5245;SDS011;54412;51.206;6.888;2023-02-01T08:26:10;23.97;;;6.63;;
5245;SDS011;54412;51.206;6.888;2023-02-01T08:28:55;18.97;;;5.10;;
5245;SDS011;54412;51.206;6.888;2023-02-01T08:31:25;20.70;;;4.77;;
5245;SDS011;54412;51.206;6.888;2023-02-01T08:33:54;18.57;;;3.67;;
5245;SDS011;54412;51.206;6.888;2023-02-01T08:36:23;24.57;;;5.33;;
5245;SDS011;54412;51.206;6.888;2023-02-01T08:38:52;21.90;;;4.53;;
5245;SDS011;54412;51.206;6.888;2023-02-01T08:41:19;26.10;;;4.57;;
5245;SDS011;54412;51.206;6.888;2023-02-01T08:43:48;19.33;;;5.97;;
5245;SDS011;54412;51.206;6.888;2023-02-01T08:46:15;29.37;;;7.07;;
5245;SDS011;54412;51.206;6.888;2023-02-01T08:48:41;23.10;;;5.90;;
5245;SDS011;54412;51.206;6.888;2023-02-01T08:51:09;25.43;;;5.60;;
5245;SDS011;54412;51.206;6.888;2023-02-01T08:53:38;21.93;;;5.80;;
5245;SDS011;54412;51.206;6.888;2023-02-01T08:56:08;27.47;;;5.40;;
5245;SDS011;54412;51.206;6.888;2023-02-01T08:58:40;21.23;;;4.93;;
5245;SDS011;54412;51.206;6.888;2023-02-01T09:01:07;17.37;;;4.47;;
5245;SDS011;54412;51.206;6.888;2023-02-01T09:03:37;21.90;;;5.20;;
5245;SDS011;54412;51.206;6.888;2023-02-01T09:06:03;24.33;;;5.30;;
5245;SDS011;54412;51.206;6.888;2023-02-01T09:08:37;19.67;;;5.40;;
5245;SDS011;54412;51.206;6.888;2023-02-01T09:11:06;31.03;;;6.00;;
5245;SDS011;54412;51.206;6.888;2023-02-01T09:13:37;25.13;;;5.00;;
5245;SDS011;54412;51.206;6.888;2023-02-01T09:16:03;21.50;;;4.90;;
5245;SDS011;54412;51.206;6.888;2023-02-01T09:18:30;24.60;;;5.63;;
5245;SDS011;54412;51.206;6.888;2023-02-01T09:20:56;22.87;;;5.40;;
5245;SDS011;54412;51.206;6.888;2023-02-01T09:23:21;25.23;;;5.47;;
5245;SDS011;54412;51.206;6.888;2023-02-01T09:25:47;24.80;;;6.27;;
5245;SDS011;54412;51.206;6.888;2023-02-01T09:28:17;22.73;;;4.20;;
5245;SDS011;54412;51.206;6.888;2023-02-01T09:30:43;24.13;;;5.70;;
5245;SDS011;54412;51.206;6.888;2023-02-01T09:33:09;22.07;;;5.10;;
5245;SDS011;54412;51.206;6.888;2023-02-01T09:35:35;15.63;;;5.67;;
5245;SDS011;54412;51.206;6.888;2023-02-01T09:38:00;19.87;;;5.37;;
5245;SDS011;54412;51.206;6.888;2023-02-01T09:40:26;22.77;;;4.93;;
5245;SDS011;54412;51.206;6.888;2023-02-01T09:48:45;12.47;;;3.70;;
5245;SDS011;54412;51.206;6.888;2023-02-01T09:51:19;32.23;;;5.80;;
5245;SDS011;54412;51.206;6.888;2023-02-01T09:54:01;21.67;;;5.07;;
5245;SDS011;54412;51.206;6.888;2023-02-01T09:56:45;27.27;;;4.93;;
5245;SDS011;54412;51.206;6.888;2023-02-01T09:59:41;25.63;;;5.53;;
5245;SDS011;54412;51.206;6.888;2023-02-01T10:02:13;25.30;;;4.93;;
5245;SDS011;54412;51.206;6.888;2023-02-01T10:04:47;15.90;;;4.93;;
5245;SDS011;54412;51.206;6.888;2023-02-01T10:11:02;14.80;;;4.30;;
5245;SDS011;54412;51.206;6.888;2023-02-01T10:13:51;22.33;;;4.40;;
5245;SDS011;54412;51.206;6.888;2023-02-01T10:19:57;27.00;;;5.13;;
5245;SDS011;54412;51.206;6.888;2023-02-01T10:26:19;21.00;;;4.63;;
5245;SDS011;54412;51.206;6.888;2023-02-01T10:28:52;28.53;;;5.80;;
5245;SDS011;54412;51.206;6.888;2023-02-01T10:31:24;28.47;;;5.80;;
5245;SDS011;54412;51.206;6.888;2023-02-01T10:33:56;22.07;;;5.03;;
5245;SDS011;54412;51.206;6.888;2023-02-01T10:36:29;16.97;;;5.40;;
5245;SDS011;54412;51.206;6.888;2023-02-01T10:38:59;21.90;;;4.47;;
5245;SDS011;54412;51.206;6.888;2023-02-01T10:41:33;21.97;;;5.50;;
5245;SDS011;54412;51.206;6.888;2023-02-01T10:44:07;20.67;;;5.60;;
5245;SDS011;54412;51.206;6.888;2023-02-01T10:46:40;21.43;;;5.30;;
5245;SDS011;54412;51.206;6.888;2023-02-01T10:49:10;25.70;;;5.97;;
5245;SDS011;54412;51.206;6.888;2023-02-01T10:54:40;15.37;;;5.30;;
5245;SDS011;54412;51.206;6.888;2023-02-01T10:57:10;22.33;;;5.67;;
5245;SDS011;54412;51.206;6.888;2023-02-01T10:59:53;21.37;;;5.30;;
5245;SDS011;54412;51.206;6.888;2023-02-01T11:02:20;16.90;;;4.40;;
5245;SDS011;54412;51.206;6.888;2023-02-01T11:05:03;17.43;;;4.73;;
5245;SDS011;54412;51.206;6.888;2023-02-01T11:07:37;20.03;;;5.00;;
5245;SDS011;54412;51.206;6.888;2023-02-01T11:10:33;21.37;;;4.53;;
5245;SDS011;54412;51.206;6.888;2023-02-01T11:13:07;20.83;;;5.10;;
5245;SDS011;54412;51.206;6.888;2023-02-01T11:15:44;24.70;;;5.60;;
5245;SDS011;54412;51.206;6.888;2023-02-01T11:18:18;21.27;;;5.03;;
5245;SDS011;54412;51.206;6.888;2023-02-01T11:20:51;23.03;;;5.03;;
5245;SDS011;54412;51.206;6.888;2023-02-01T11:23:21;18.43;;;4.50;;
5245;SDS011;54412;51.206;6.888;2023-02-01T11:25:58;18.17;;;4.80;;
5245;SDS011;54412;51.206;6.888;2023-02-01T11:28:37;26.63;;;5.53;;
5245;SDS011;54412;51.206;6.888;2023-02-01T11:31:10;18.10;;;4.67;;
5245;SDS011;54412;51.206;6.888;2023-02-01T11:33:38;19.63;;;4.57;;
5245;SDS011;54412;51.206;6.888;2023-02-01T11:36:21;15.57;;;4.17;;
5245;SDS011;54412;51.206;6.888;2023-02-01T11:38:53;24.03;;;5.47;;
5245;SDS011;54412;51.206;6.888;2023-02-01T11:41:58;20.00;;;5.40;;
5245;SDS011;54412;51.206;6.888;2023-02-01T11:44:46;23.77;;;4.73;;
5245;SDS011;54412;51.206;6.888;2023-02-01T11:47:28;20.23;;;4.97;;
5245;SDS011;54412;51.206;6.888;2023-02-01T11:50:05;19.23;;;5.60;;
5245;SDS011;54412;51.206;6.888;2023-02-01T11:52:52;21.50;;;4.77;;
5245;SDS011;54412;51.206;6.888;2023-02-01T11:55:56;18.53;;;4.37;;
5245;SDS011;54412;51.206;6.888;2023-02-01T12:18:32;15.70;;;4.17;;
5245;SDS011;54412;51.206;6.888;2023-02-01T12:21:49;17.97;;;4.17;;
5245;SDS011;54412;51.206;6.888;2023-02-01T12:24:37;17.63;;;5.03;;
5245;SDS011;54412;51.206;6.888;2023-02-01T12:27:35;13.77;;;5.57;;
5245;SDS011;54412;51.206;6.888;2023-02-01T12:35:49;17.03;;;3.70;;
5245;SDS011;54412;51.206;6.888;2023-02-01T12:41:40;11.83;;;3.77;;
5245;SDS011;54412;51.206;6.888;2023-02-01T12:50:01;16.23;;;4.13;;
5245;SDS011;54412;51.206;6.888;2023-02-01T12:52:54;16.00;;;4.03;;
5245;SDS011;54412;51.206;6.888;2023-02-01T12:55:38;9.87;;;3.77;;
5245;SDS011;54412;51.206;6.888;2023-02-01T12:58:22;16.53;;;4.57;;
5245;SDS011;54412;51.206;6.888;2023-02-01T13:01:05;18.43;;;4.33;;
5245;SDS011;54412;51.206;6.888;2023-02-01T13:06:38;17.57;;;4.10;;
5245;SDS011;54412;51.206;6.888;2023-02-01T13:09:36;14.83;;;3.90;;
5245;SDS011;54412;51.206;6.888;2023-02-01T13:12:36;15.53;;;3.97;;
5245;SDS011;54412;51.206;6.888;2023-02-01T13:15:11;21.87;;;5.80;;
5245;SDS011;54412;51.206;6.888;2023-02-01T13:17:51;15.20;;;4.23;;
5245;SDS011;54412;51.206;6.888;2023-02-01T13:20:25;18.53;;;4.17;;
5245;SDS011;54412;51.206;6.888;2023-02-01T13:26:01;10.03;;;3.43;;
5245;SDS011;54412;51.206;6.888;2023-02-01T13:34:22;13.07;;;3.70;;
5245;SDS011;54412;51.206;6.888;2023-02-01T13:39:55;20.30;;;4.57;;
5245;SDS011;54412;51.206;6.888;2023-02-01T13:42:58;14.77;;;3.40;;
5245;SDS011;54412;51.206;6.888;2023-02-01T13:45:43;18.30;;;4.60;;
5245;SDS011;54412;51.206;6.888;2023-02-01T13:48:31;14.70;;;3.80;;
5245;SDS011;54412;51.206;6.888;2023-02-01T13:51:11;13.43;;;3.37;;
5245;SDS011;54412;51.206;6.888;2023-02-01T13:53:43;15.13;;;3.50;;
5245;SDS011;54412;51.206;6.888;2023-02-01T13:56:14;24.10;;;5.80;;
5245;SDS011;54412;51.206;6.888;2023-02-01T13:58:49;24.57;;;3.30;;
5245;SDS011;54412;51.206;6.888;2023-02-01T14:03:49;13.27;;;3.50;;
5245;SDS011;54412;51.206;6.888;2023-02-01T14:11:44;19.80;;;3.60;;
5245;SDS011;54412;51.206;6.888;2023-02-01T14:16:41;12.87;;;3.00;;
5245;SDS011;54412;51.206;6.888;2023-02-01T14:21:53;15.13;;;3.53;;
5245;SDS011;54412;51.206;6.888;2023-02-01T14:24:30;17.80;;;3.10;;
5245;SDS011;54412;51.206;6.888;2023-02-01T14:27:00;12.07;;;3.80;;
5245;SDS011;54412;51.206;6.888;2023-02-01T14:29:39;17.37;;;4.57;;
5245;SDS011;54412;51.206;6.888;2023-02-01T14:32:21;21.17;;;4.27;;
5245;SDS011;54412;51.206;6.888;2023-02-01T14:34:51;24.03;;;4.03;;
5245;SDS011;54412;51.206;6.888;2023-02-01T14:42:35;12.80;;;5.20;;
5245;SDS011;54412;51.206;6.888;2023-02-01T14:47:50;16.87;;;3.20;;
5245;SDS011;54412;51.206;6.888;2023-02-01T14:58:13;14.87;;;3.43;;
5245;SDS011;54412;51.206;6.888;2023-02-01T15:04:01;11.63;;;4.10;;
5245;SDS011;54412;51.206;6.888;2023-02-01T15:06:39;16.03;;;4.07;;
5245;SDS011;54412;51.206;6.888;2023-02-01T15:09:19;18.33;;;3.10;;
5245;SDS011;54412;51.206;6.888;2023-02-01T15:17:24;19.40;;;3.50;;
5245;SDS011;54412;51.206;6.888;2023-02-01T15:19:59;13.40;;;3.00;;
5245;SDS011;54412;51.206;6.888;2023-02-01T15:22:40;19.63;;;3.40;;
5245;SDS011;54412;51.206;6.888;2023-02-01T15:25:17;14.53;;;3.33;;
5245;SDS011;54412;51.206;6.888;2023-02-01T15:27:48;15.37;;;3.40;;
5245;SDS011;54412;51.206;6.888;2023-02-01T15:35:52;17.70;;;3.60;;
5245;SDS011;54412;51.206;6.888;2023-02-01T15:43:41;14.23;;;3.57;;
5245;SDS011;54412;51.206;6.888;2023-02-01T15:49:01;16.03;;;3.60;;
5245;SDS011;54412;51.206;6.888;2023-02-01T15:51:29;8.97;;;3.30;;
5245;SDS011;54412;51.206;6.888;2023-02-01T15:54:01;12.63;;;4.30;;
5245;SDS011;54412;51.206;6.888;2023-02-01T15:56:36;19.83;;;4.10;;
5245;SDS011;54412;51.206;6.888;2023-02-01T15:59:15;12.63;;;3.57;;
5245;SDS011;54412;51.206;6.888;2023-02-01T16:01:43;12.20;;;4.03;;
5245;SDS011;54412;51.206;6.888;2023-02-01T16:06:49;17.17;;;3.73;;
5245;SDS011;54412;51.206;6.888;2023-02-01T16:09:21;16.20;;;4.30;;
5245;SDS011;54412;51.206;6.888;2023-02-01T16:12:00;21.23;;;5.33;;
5245;SDS011;54412;51.206;6.888;2023-02-01T16:14:28;20.50;;;3.67;;
5245;SDS011;54412;51.206;6.888;2023-02-01T16:16:55;25.20;;;4.57;;
5245;SDS011;54412;51.206;6.888;2023-02-01T16:19:23;13.13;;;3.27;;
5245;SDS011;54412;51.206;6.888;2023-02-01T16:21:53;21.83;;;4.23;;
5245;SDS011;54412;51.206;6.888;2023-02-01T16:24:23;19.23;;;3.63;;
5245;SDS011;54412;51.206;6.888;2023-02-01T16:26:50;16.30;;;4.30;;
5245;SDS011;54412;51.206;6.888;2023-02-01T16:29:16;19.80;;;4.17;;
5245;SDS011;54412;51.206;6.888;2023-02-01T16:31:42;11.50;;;3.03;;
5245;SDS011;54412;51.206;6.888;2023-02-01T16:34:13;19.43;;;4.27;;
5245;SDS011;54412;51.206;6.888;2023-02-01T16:36:47;21.13;;;3.63;;
5245;SDS011;54412;51.206;6.888;2023-02-01T16:39:17;8.97;;;3.30;;
5245;SDS011;54412;51.206;6.888;2023-02-01T16:41:44;16.40;;;4.03;;
5245;SDS011;54412;51.206;6.888;2023-02-01T16:44:10;13.47;;;3.60;;
5245;SDS011;54412;51.206;6.888;2023-02-01T16:46:39;16.57;;;4.20;;
5245;SDS011;54412;51.206;6.888;2023-02-01T16:49:19;23.13;;;4.37;;
5245;SDS011;54412;51.206;6.888;2023-02-01T16:51:51;16.70;;;3.50;;
5245;SDS011;54412;51.206;6.888;2023-02-01T16:54:22;14.40;;;4.43;;
5245;SDS011;54412;51.206;6.888;2023-02-01T16:56:48;27.80;;;4.40;;
5245;SDS011;54412;51.206;6.888;2023-02-01T16:59:14;20.53;;;3.83;;
5245;SDS011;54412;51.206;6.888;2023-02-01T17:01:40;14.57;;;3.23;;
5245;SDS011;54412;51.206;6.888;2023-02-01T17:04:07;16.57;;;3.87;;
5245;SDS011;54412;51.206;6.888;2023-02-01T17:06:34;17.20;;;4.47;;
5245;SDS011;54412;51.206;6.888;2023-02-01T17:09:02;19.53;;;3.73;;
5245;SDS011;54412;51.206;6.888;2023-02-01T17:11:29;25.60;;;3.90;;
5245;SDS011;54412;51.206;6.888;2023-02-01T17:13:56;24.30;;;5.10;;
5245;SDS011;54412;51.206;6.888;2023-02-01T17:16:44;20.93;;;4.27;;
5245;SDS011;54412;51.206;6.888;2023-02-01T17:19:13;13.20;;;3.73;;
5245;SDS011;54412;51.206;6.888;2023-02-01T17:21:48;19.90;;;4.10;;
5245;SDS011;54412;51.206;6.888;2023-02-01T17:24:21;15.13;;;4.23;;
5245;SDS011;54412;51.206;6.888;2023-02-01T17:26:50;19.20;;;4.93;;
5245;SDS011;54412;51.206;6.888;2023-02-01T17:29:17;21.70;;;4.57;;
5245;SDS011;54412;51.206;6.888;2023-02-01T17:31:44;19.03;;;4.30;;
5245;SDS011;54412;51.206;6.888;2023-02-01T17:34:14;19.60;;;4.50;;
5245;SDS011;54412;51.206;6.888;2023-02-01T17:36:42;12.93;;;3.50;;
5245;SDS011;54412;51.206;6.888;2023-02-01T17:39:09;15.93;;;3.47;;
5245;SDS011;54412;51.206;6.888;2023-02-01T17:41:55;14.63;;;4.50;;
5245;SDS011;54412;51.206;6.888;2023-02-01T17:44:21;21.27;;;3.90;;
5245;SDS011;54412;51.206;6.888;2023-02-01T17:46:47;18.27;;;3.40;;
5245;SDS011;54412;51.206;6.888;2023-02-01T17:49:12;19.37;;;4.60;;
5245;SDS011;54412;51.206;6.888;2023-02-01T17:51:38;19.47;;;3.97;;
5245;SDS011;54412;51.206;6.888;2023-02-01T17:54:07;18.20;;;3.60;;